createdAt,value
2019-02-14T00:00:58.237Z,106.87
2019-02-14T00:06:04.052Z,87.90
2019-02-14T00:11:09.088Z,101.50
2019-02-14T00:16:14.093Z,96.43
2019-02-14T00:21:19.141Z,94.00
2019-02-14T00:26:24.150Z,83.13
2019-02-14T00:31:29.153Z,75.80
2019-02-14T00:36:34.156Z,76.60
2019-02-14T00:41:39.159Z,73.30
2019-02-14T00:46:44.171Z,65.23
2019-02-14T00:51:49.165Z,65.73
2019-02-14T00:56:54.228Z,69.87
2019-02-14T01:01:59.232Z,74.20
2019-02-14T01:07:05.676Z,65.87
2019-02-14T01:12:11.396Z,67.97
2019-02-14T01:17:16.405Z,69.53
2019-02-14T01:22:21.712Z,75.07
2019-02-14T01:27:26.754Z,77.77
2019-02-14T01:32:31.772Z,72.90
2019-02-14T01:37:36.787Z,64.57
2019-02-14T01:42:41.798Z,67.43
2019-02-14T01:47:46.802Z,70.87
2019-02-14T01:52:52.037Z,61.30
2019-02-14T01:57:57.035Z,68.30
2019-02-14T02:03:02.152Z,62.77
2019-02-14T02:08:08.928Z,70.67
2019-02-14T02:13:14.102Z,63.80
2019-02-14T02:18:20.209Z,68.43
2019-02-14T02:23:25.232Z,65.17
2019-02-14T02:28:30.237Z,63.23
2019-02-14T02:33:35.250Z,64.57
2019-02-14T02:38:40.262Z,66.90
2019-02-14T02:43:45.306Z,59.23
2019-02-14T02:48:50.353Z,62.10
2019-02-14T02:53:55.364Z,63.90
2019-02-14T02:59:00.372Z,60.37
2019-02-14T03:04:05.404Z,63.17
2019-02-14T03:09:10.388Z,69.73
2019-02-14T03:14:15.391Z,62.20
2019-02-14T03:19:20.381Z,64.60
2019-02-14T03:24:25.381Z,62.33
2019-02-14T03:29:30.344Z,61.20
2019-02-14T03:34:35.347Z,64.47
2019-02-14T03:39:40.371Z,65.50
2019-02-14T03:44:45.368Z,67.97
2019-02-14T03:49:50.378Z,69.07
2019-02-14T03:54:55.368Z,70.20
2019-02-14T04:00:00.434Z,65.87
2019-02-14T04:05:05.929Z,63.27
2019-02-14T04:10:12.246Z,63.73
2019-02-14T04:15:17.260Z,62.33
2019-02-14T04:20:22.272Z,66.27
2019-02-14T04:25:27.316Z,67.77
2019-02-14T04:30:32.336Z,64.03
2019-02-14T04:35:37.346Z,68.10
2019-02-14T04:40:42.473Z,69.97
2019-02-14T04:45:47.487Z,70.53
2019-02-14T04:50:52.556Z,70.07
2019-02-14T04:55:57.577Z,70.63
2019-02-14T05:01:02.594Z,68.97
2019-02-14T05:06:07.611Z,69.53
2019-02-14T05:11:12.614Z,67.83
2019-02-14T05:16:17.650Z,66.37
2019-02-14T05:21:22.653Z,72.33
2019-02-14T05:26:27.652Z,69.30
2019-02-14T05:31:32.656Z,73.10
2019-02-14T05:36:37.701Z,76.27
2019-02-14T05:41:42.724Z,75.27
2019-02-14T05:46:49.864Z,74.30
2019-02-14T05:51:54.983Z,80.73
2019-02-14T05:56:59.998Z,77.07
2019-02-14T06:02:05.333Z,80.10
2019-02-14T06:07:10.344Z,79.20
2019-02-14T06:12:15.605Z,76.77
2019-02-14T06:17:20.622Z,78.50
2019-02-14T06:22:25.704Z,78.07
2019-02-14T06:27:30.726Z,79.20
2019-02-14T06:32:35.792Z,67.83
2019-02-14T06:37:40.825Z,76.87
2019-02-14T06:42:45.928Z,77.53
2019-02-14T06:47:50.937Z,83.43
2019-02-14T06:52:55.958Z,75.67
2019-02-14T06:58:00.959Z,79.97
2019-02-14T07:03:06.137Z,69.00
2019-02-14T07:08:11.146Z,73.10
2019-02-14T07:13:16.153Z,80.33
2019-02-14T07:18:21.167Z,77.23
2019-02-14T07:23:27.419Z,83.23
2019-02-14T07:28:34.352Z,76.93
2019-02-14T07:33:39.201Z,80.07
2019-02-14T07:38:44.197Z,87.30
2019-02-14T07:43:49.167Z,85.17
2019-02-14T07:48:54.130Z,85.10
2019-02-14T07:53:59.090Z,80.63
2019-02-14T07:59:04.065Z,82.60
2019-02-14T08:04:09.040Z,80.07
2019-02-14T08:09:14.017Z,72.93
2019-02-14T08:14:19.003Z,78.57
2019-02-14T08:19:24.000Z,80.93
2019-02-14T08:24:28.963Z,71.57
2019-02-14T08:29:33.983Z,67.40
2019-02-14T08:34:38.944Z,67.03
2019-02-14T08:39:43.933Z,69.13
2019-02-14T08:44:48.893Z,70.93
2019-02-14T08:49:53.875Z,62.37
2019-02-14T08:54:58.845Z,63.30
2019-02-14T09:00:04.228Z,65.80
2019-02-14T09:05:09.310Z,62.87
2019-02-14T09:10:14.433Z,60.30
2019-02-14T09:15:19.401Z,64.93
2019-02-14T09:20:24.356Z,70.17
2019-02-14T09:25:29.373Z,121.53
2019-02-14T09:30:34.401Z,177.93
2019-02-14T09:35:39.384Z,208.33
2019-02-14T09:40:44.349Z,185.53
2019-02-14T09:45:49.343Z,128.97
2019-02-14T09:50:54.304Z,152.10
2019-02-14T09:55:59.282Z,175.23
2019-02-14T10:01:04.257Z,188.27
2019-02-14T10:06:09.222Z,184.73
2019-02-14T10:11:14.193Z,187.63
2019-02-14T10:16:19.180Z,195.73
2019-02-14T10:21:24.147Z,227.07
2019-02-14T10:26:29.168Z,213.53
2019-02-14T10:31:34.130Z,216.63
2019-02-14T10:36:39.109Z,220.70
2019-02-14T10:41:44.070Z,138.07
2019-02-14T10:46:49.054Z,104.03
2019-02-14T10:51:54.222Z,79.50
2019-02-14T10:56:59.190Z,56.73
2019-02-14T11:02:07.076Z,51.87
2019-02-14T11:07:13.594Z,45.83
2019-02-14T11:12:18.721Z,42.93
2019-02-14T11:17:23.684Z,42.40
2019-02-14T11:22:28.748Z,42.40
2019-02-14T11:27:33.752Z,36.67
2019-02-14T11:32:38.773Z,31.50
2019-02-14T11:37:43.736Z,32.07
2019-02-14T11:42:48.704Z,34.20
2019-02-14T11:47:53.665Z,32.30
2019-02-14T11:52:59.162Z,35.47
2019-02-14T11:58:04.124Z,34.03
2019-02-14T12:03:09.175Z,31.13
2019-02-14T12:08:14.140Z,29.97
2019-02-14T12:13:19.284Z,27.93
2019-02-14T12:18:24.239Z,31.83
2019-02-14T12:23:29.207Z,29.93
2019-02-14T12:28:34.233Z,30.27
2019-02-14T12:33:39.187Z,32.73
2019-02-14T12:38:44.160Z,26.97
2019-02-14T12:43:49.139Z,26.10
2019-02-14T12:48:54.092Z,25.73
2019-02-14T12:53:59.062Z,25.70
2019-02-14T12:59:04.030Z,25.77
2019-02-14T13:04:09.000Z,25.60
2019-02-14T13:09:20.154Z,25.33
2019-02-14T13:14:21.876Z,23.73
2019-02-14T13:19:26.869Z,23.67
2019-02-14T13:24:32.277Z,24.80
2019-02-14T13:29:37.284Z,24.87
2019-02-14T13:34:42.932Z,24.50
2019-02-14T13:39:47.880Z,25.20
2019-02-14T13:44:52.890Z,23.47
2019-02-14T13:49:57.871Z,23.50
2019-02-14T13:55:02.839Z,23.53
2019-02-14T14:00:11.450Z,22.90
2019-02-14T14:05:16.436Z,22.23
2019-02-14T14:10:21.438Z,22.53
2019-02-14T14:15:26.412Z,20.77
2019-02-14T14:20:31.396Z,21.03
2019-02-14T14:25:36.366Z,21.17
2019-02-14T14:30:41.548Z,20.43
2019-02-14T14:35:46.536Z,21.33
2019-02-14T14:40:51.508Z,19.83
2019-02-14T14:46:04.241Z,20.10
2019-02-14T14:51:09.209Z,21.83
2019-02-14T14:56:14.196Z,22.53
2019-02-14T15:01:19.226Z,20.60
2019-02-14T15:06:24.194Z,21.57
2019-02-14T15:11:29.480Z,20.73
2019-02-14T15:16:34.464Z,19.40
2019-02-14T15:21:39.475Z,22.30
2019-02-14T15:26:44.480Z,20.97
2019-02-14T15:31:49.485Z,19.73
2019-02-14T15:36:54.432Z,17.93
2019-02-14T15:41:59.444Z,15.90
2019-02-14T15:47:04.399Z,16.77
2019-02-14T15:52:09.370Z,15.87
2019-02-14T15:57:16.522Z,16.33
2019-02-14T16:02:21.127Z,15.40
2019-02-14T16:07:26.087Z,15.67
2019-02-14T16:12:31.060Z,16.53
2019-02-14T16:17:37.439Z,15.03
2019-02-14T16:22:44.042Z,16.30
2019-02-14T16:27:50.550Z,16.23
2019-02-14T16:32:55.745Z,15.87
2019-02-14T16:38:00.711Z,17.63
2019-02-14T16:43:05.684Z,18.00
2019-02-14T16:48:12.944Z,20.03
2019-02-14T16:53:18.215Z,22.53
2019-02-14T16:58:42.262Z,22.67
2019-02-14T17:03:47.243Z,23.33
2019-02-14T17:08:52.204Z,26.53
2019-02-14T17:13:57.237Z,27.57
2019-02-14T17:19:02.190Z,26.67
2019-02-14T17:24:07.179Z,28.37
2019-02-14T17:29:12.199Z,26.73
2019-02-14T17:34:17.163Z,26.17
2019-02-14T17:39:22.179Z,25.37
2019-02-14T17:44:27.171Z,24.60
2019-02-14T17:49:32.140Z,35.83
2019-02-14T17:54:37.104Z,49.23
2019-02-14T17:59:42.077Z,30.70
2019-02-14T18:04:47.056Z,28.37
2019-02-14T18:09:52.024Z,28.43
2019-02-14T18:14:56.999Z,26.53
2019-02-14T18:20:02.136Z,25.57
2019-02-14T18:25:08.315Z,27.37
2019-02-14T18:30:15.235Z,23.73
2019-02-14T18:35:20.152Z,25.20
2019-02-14T18:40:25.133Z,23.27
2019-02-14T18:45:30.107Z,24.70
2019-02-14T18:50:35.078Z,24.20
2019-02-14T18:55:40.036Z,25.67
2019-02-14T19:00:45.039Z,24.10
2019-02-14T19:05:50.020Z,21.60
2019-02-14T19:10:55.060Z,21.07
2019-02-14T19:16:00.032Z,26.03
2019-02-14T19:21:05.029Z,20.50
2019-02-14T19:26:09.997Z,22.10
2019-02-14T19:31:15.131Z,21.73
2019-02-14T19:36:20.078Z,25.67
2019-02-14T19:41:25.655Z,24.07
2019-02-14T19:46:30.942Z,21.40
2019-02-14T19:51:35.912Z,20.50
2019-02-14T19:56:40.936Z,22.93
2019-02-14T20:01:45.925Z,21.20
2019-02-14T20:06:51.119Z,24.67
2019-02-14T20:11:56.071Z,25.47
2019-02-14T20:17:01.039Z,28.53
2019-02-14T20:22:06.036Z,28.13
2019-02-14T20:27:11.052Z,31.27
2019-02-14T20:32:16.063Z,29.53
2019-02-14T20:37:21.071Z,26.47
2019-02-14T20:42:26.123Z,27.40
2019-02-14T20:47:31.118Z,26.00
2019-02-14T20:52:36.125Z,28.50
2019-02-14T20:57:41.096Z,40.30
2019-02-14T21:02:46.106Z,38.40
2019-02-14T21:07:51.085Z,36.60
2019-02-14T21:12:56.150Z,39.57
2019-02-14T21:18:01.131Z,40.90
2019-02-14T21:23:06.456Z,43.67
2019-02-14T21:28:11.781Z,43.53
2019-02-14T21:33:17.000Z,48.90
2019-02-14T21:38:21.952Z,46.17
2019-02-14T21:43:27.085Z,50.50
2019-02-14T21:48:32.170Z,48.17
2019-02-14T21:53:37.164Z,51.27
2019-02-14T21:58:42.167Z,56.30
2019-02-14T22:03:47.384Z,58.57
2019-02-14T22:08:52.431Z,78.67
2019-02-14T22:13:57.372Z,65.87
2019-02-14T22:19:02.335Z,62.83
2019-02-14T22:24:07.323Z,59.93
2019-02-14T22:29:12.304Z,64.60
2019-02-14T22:34:17.391Z,70.17
2019-02-14T22:39:22.356Z,63.97
2019-02-14T22:44:27.377Z,68.50
2019-02-14T22:49:33.098Z,69.00
2019-02-14T22:54:38.272Z,69.27
2019-02-14T22:59:43.543Z,73.13
2019-02-14T23:04:49.770Z,68.10
2019-02-14T23:09:55.541Z,65.57
2019-02-14T23:15:01.103Z,69.17
2019-02-14T23:20:07.026Z,75.33
2019-02-14T23:25:12.009Z,69.67
2019-02-14T23:30:17.042Z,82.83
2019-02-14T23:35:22.212Z,93.07
2019-02-14T23:40:28.644Z,87.63
2019-02-14T23:45:33.927Z,83.67
2019-02-14T23:50:38.886Z,46.90
2019-02-14T23:55:45.771Z,39.40
